sensor_id;sensor_type;location;lat;lon;timestamp;P1;durP1;ratioP1;P2;durP2;ratioP2
11612;SDS011;5862;48.718;9.108;2022-08-03T00:00:29;1.90;;;1.80;;
11612;SDS011;5862;48.718;9.108;2022-08-03T00:02:58;1.65;;;1.55;;
11612;SDS011;5862;48.718;9.108;2022-08-03T00:05:30;1.70;;;1.60;;
11612;SDS011;5862;48.718;9.108;2022-08-03T00:07:59;4.72;;;1.75;;
11612;SDS011;5862;48.718;9.108;2022-08-03T00:10:27;1.83;;;1.73;;
11612;SDS011;5862;48.718;9.108;2022-08-03T00:12:56;1.63;;;1.48;;
11612;SDS011;5862;48.718;9.108;2022-08-03T00:15:25;1.60;;;1.50;;
11612;SDS011;5862;48.718;9.108;2022-08-03T00:17:51;1.80;;;1.70;;
11612;SDS011;5862;48.718;9.108;2022-08-03T00:20:22;1.65;;;1.55;;
11612;SDS011;5862;48.718;9.108;2022-08-03T00:22:53;2.92;;;1.90;;
11612;SDS011;5862;48.718;9.108;2022-08-03T00:25:20;2.00;;;1.90;;
11612;SDS011;5862;48.718;9.108;2022-08-03T00:27:49;1.70;;;1.60;;
11612;SDS011;5862;48.718;9.108;2022-08-03T00:30:16;1.83;;;1.73;;
11612;SDS011;5862;48.718;9.108;2022-08-03T00:32:45;1.50;;;1.40;;
11612;SDS011;5862;48.718;9.108;2022-08-03T00:35:14;1.58;;;1.48;;
11612;SDS011;5862;48.718;9.108;2022-08-03T00:38:02;1.73;;;1.63;;
11612;SDS011;5862;48.718;9.108;2022-08-03T00:40:31;2.53;;;1.70;;
11612;SDS011;5862;48.718;9.108;2022-08-03T00:43:01;1.77;;;1.50;;
11612;SDS011;5862;48.718;9.108;2022-08-03T00:45:30;1.63;;;1.52;;
11612;SDS011;5862;48.718;9.108;2022-08-03T00:48:01;1.38;;;1.27;;
11612;SDS011;5862;48.718;9.108;2022-08-03T00:50:29;1.27;;;1.17;;
11612;SDS011;5862;48.718;9.108;2022-08-03T00:52:58;1.20;;;1.10;;
11612;SDS011;5862;48.718;9.108;2022-08-03T00:55:24;1.95;;;1.50;;
11612;SDS011;5862;48.718;9.108;2022-08-03T00:57:51;1.65;;;1.55;;
11612;SDS011;5862;48.718;9.108;2022-08-03T01:00:19;1.60;;;1.50;;
11612;SDS011;5862;48.718;9.108;2022-08-03T01:02:48;1.65;;;1.55;;
11612;SDS011;5862;48.718;9.108;2022-08-03T01:05:15;1.58;;;1.33;;
11612;SDS011;5862;48.718;9.108;2022-08-03T01:10:58;1.70;;;1.60;;
11612;SDS011;5862;48.718;9.108;2022-08-03T01:21:58;2.00;;;1.90;;
11612;SDS011;5862;48.718;9.108;2022-08-03T01:24:36;2.05;;;1.90;;
11612;SDS011;5862;48.718;9.108;2022-08-03T01:30:33;1.70;;;1.60;;
11612;SDS011;5862;48.718;9.108;2022-08-03T01:33:01;1.73;;;1.63;;
11612;SDS011;5862;48.718;9.108;2022-08-03T01:38:59;1.73;;;1.63;;
11612;SDS011;5862;48.718;9.108;2022-08-03T01:41:14;1.92;;;1.80;;
11612;SDS011;5862;48.718;9.108;2022-08-03T01:43:44;1.73;;;1.63;;
11612;SDS011;5862;48.718;9.108;2022-08-03T01:46:35;1.50;;;1.40;;
11612;SDS011;5862;48.718;9.108;2022-08-03T01:49:12;2.15;;;2.05;;
11612;SDS011;5862;48.718;9.108;2022-08-03T01:51:41;2.00;;;1.88;;
11612;SDS011;5862;48.718;9.108;2022-08-03T01:54:28;2.25;;;2.05;;
11612;SDS011;5862;48.718;9.108;2022-08-03T01:56:55;2.03;;;1.90;;
11612;SDS011;5862;48.718;9.108;2022-08-03T01:59:24;2.40;;;2.20;;
11612;SDS011;5862;48.718;9.108;2022-08-03T02:01:51;1.98;;;1.67;;
11612;SDS011;5862;48.718;9.108;2022-08-03T02:04:40;1.60;;;1.50;;
11612;SDS011;5862;48.718;9.108;2022-08-03T02:07:07;1.90;;;1.80;;
11612;SDS011;5862;48.718;9.108;2022-08-03T02:09:35;2.65;;;1.80;;
11612;SDS011;5862;48.718;9.108;2022-08-03T02:12:08;2.05;;;1.85;;
11612;SDS011;5862;48.718;9.108;2022-08-03T02:14:35;2.60;;;2.40;;
11612;SDS011;5862;48.718;9.108;2022-08-03T02:17:03;1.92;;;1.83;;
11612;SDS011;5862;48.718;9.108;2022-08-03T02:19:31;2.45;;;1.98;;
11612;SDS011;5862;48.718;9.108;2022-08-03T02:22:01;2.08;;;1.83;;
11612;SDS011;5862;48.718;9.108;2022-08-03T02:24:28;2.03;;;1.92;;
11612;SDS011;5862;48.718;9.108;2022-08-03T02:26:55;1.95;;;1.80;;
11612;SDS011;5862;48.718;9.108;2022-08-03T02:29:23;2.20;;;1.88;;
11612;SDS011;5862;48.718;9.108;2022-08-03T02:32:09;2.97;;;2.22;;
11612;SDS011;5862;48.718;9.108;2022-08-03T02:34:39;2.75;;;1.95;;
11612;SDS011;5862;48.718;9.108;2022-08-03T02:37:07;1.85;;;1.75;;
11612;SDS011;5862;48.718;9.108;2022-08-03T02:39:35;2.33;;;2.13;;
11612;SDS011;5862;48.718;9.108;2022-08-03T02:42:05;2.42;;;2.08;;
11612;SDS011;5862;48.718;9.108;2022-08-03T02:44:38;2.67;;;2.15;;
11612;SDS011;5862;48.718;9.108;2022-08-03T02:47:07;2.28;;;2.05;;
11612;SDS011;5862;48.718;9.108;2022-08-03T02:49:38;2.67;;;1.95;;
11612;SDS011;5862;48.718;9.108;2022-08-03T02:52:17;1.90;;;1.80;;
11612;SDS011;5862;48.718;9.108;2022-08-03T02:54:49;1.55;;;1.45;;
11612;SDS011;5862;48.718;9.108;2022-08-03T02:57:22;1.73;;;1.63;;
11612;SDS011;5862;48.718;9.108;2022-08-03T02:59:51;1.80;;;1.70;;
11612;SDS011;5862;48.718;9.108;2022-08-03T03:02:18;2.20;;;2.00;;
11612;SDS011;5862;48.718;9.108;2022-08-03T03:04:46;2.63;;;2.20;;
11612;SDS011;5862;48.718;9.108;2022-08-03T03:07:37;2.60;;;2.40;;
11612;SDS011;5862;48.718;9.108;2022-08-03T03:10:21;2.45;;;2.03;;
11612;SDS011;5862;48.718;9.108;2022-08-03T03:12:52;2.25;;;2.10;;
11612;SDS011;5862;48.718;9.108;2022-08-03T03:15:22;2.42;;;1.80;;
11612;SDS011;5862;48.718;9.108;2022-08-03T03:17:50;2.58;;;2.03;;
11612;SDS011;5862;48.718;9.108;2022-08-03T03:20:21;1.95;;;1.85;;
11612;SDS011;5862;48.718;9.108;2022-08-03T03:22:55;2.53;;;2.33;;
11612;SDS011;5862;48.718;9.108;2022-08-03T03:25:31;2.38;;;2.17;;
11612;SDS011;5862;48.718;9.108;2022-08-03T03:27:58;2.33;;;2.13;;
11612;SDS011;5862;48.718;9.108;2022-08-03T03:30:26;2.28;;;2.08;;
11612;SDS011;5862;48.718;9.108;2022-08-03T03:32:53;2.58;;;2.22;;
11612;SDS011;5862;48.718;9.108;2022-08-03T03:35:20;2.47;;;2.28;;
11612;SDS011;5862;48.718;9.108;2022-08-03T03:37:50;2.83;;;2.05;;
11612;SDS011;5862;48.718;9.108;2022-08-03T03:40:17;2.45;;;2.00;;
11612;SDS011;5862;48.718;9.108;2022-08-03T03:42:44;2.20;;;2.00;;
11612;SDS011;5862;48.718;9.108;2022-08-03T03:45:11;2.05;;;1.95;;
11612;SDS011;5862;48.718;9.108;2022-08-03T03:47:38;2.15;;;1.95;;
11612;SDS011;5862;48.718;9.108;2022-08-03T03:50:06;1.70;;;1.60;;
11612;SDS011;5862;48.718;9.108;2022-08-03T03:52:33;2.15;;;2.05;;
11612;SDS011;5862;48.718;9.108;2022-08-03T03:55:00;2.67;;;2.20;;
11612;SDS011;5862;48.718;9.108;2022-08-03T03:57:29;2.38;;;1.98;;
11612;SDS011;5862;48.718;9.108;2022-08-03T03:59:56;2.58;;;2.30;;
11612;SDS011;5862;48.718;9.108;2022-08-03T04:02:22;2.50;;;2.30;;
11612;SDS011;5862;48.718;9.108;2022-08-03T04:04:49;2.55;;;2.35;;
11612;SDS011;5862;48.718;9.108;2022-08-03T04:07:41;2.40;;;2.15;;
11612;SDS011;5862;48.718;9.108;2022-08-03T04:10:30;2.40;;;2.20;;
11612;SDS011;5862;48.718;9.108;2022-08-03T04:13:17;2.60;;;2.40;;
11612;SDS011;5862;48.718;9.108;2022-08-03T04:15:45;2.00;;;1.83;;
11612;SDS011;5862;48.718;9.108;2022-08-03T04:18:13;2.55;;;2.35;;
11612;SDS011;5862;48.718;9.108;2022-08-03T04:20:41;2.42;;;2.00;;
11612;SDS011;5862;48.718;9.108;2022-08-03T04:23:13;2.60;;;2.22;;
11612;SDS011;5862;48.718;9.108;2022-08-03T04:25:44;3.20;;;2.45;;
11612;SDS011;5862;48.718;9.108;2022-08-03T04:28:14;2.40;;;2.20;;
11612;SDS011;5862;48.718;9.108;2022-08-03T04:30:57;2.35;;;1.88;;
11612;SDS011;5862;48.718;9.108;2022-08-03T04:33:25;1.98;;;1.88;;
11612;SDS011;5862;48.718;9.108;2022-08-03T04:35:54;2.22;;;2.00;;
11612;SDS011;5862;48.718;9.108;2022-08-03T04:38:28;2.30;;;2.10;;
11612;SDS011;5862;48.718;9.108;2022-08-03T04:40:55;2.50;;;2.30;;
11612;SDS011;5862;48.718;9.108;2022-08-03T04:43:24;1.90;;;1.70;;
11612;SDS011;5862;48.718;9.108;2022-08-03T04:45:51;2.20;;;2.00;;
11612;SDS011;5862;48.718;9.108;2022-08-03T04:48:21;1.83;;;1.73;;
11612;SDS011;5862;48.718;9.108;2022-08-03T04:50:48;2.58;;;2.15;;
11612;SDS011;5862;48.718;9.108;2022-08-03T04:53:17;1.95;;;1.85;;
11612;SDS011;5862;48.718;9.108;2022-08-03T04:55:44;2.08;;;1.90;;
11612;SDS011;5862;48.718;9.108;2022-08-03T04:58:11;1.58;;;1.48;;
11612;SDS011;5862;48.718;9.108;2022-08-03T05:00:38;1.80;;;1.70;;
11612;SDS011;5862;48.718;9.108;2022-08-03T05:03:04;1.70;;;1.60;;
11612;SDS011;5862;48.718;9.108;2022-08-03T05:05:49;1.73;;;1.63;;
11612;SDS011;5862;48.718;9.108;2022-08-03T05:08:27;1.60;;;1.50;;
11612;SDS011;5862;48.718;9.108;2022-08-03T05:10:59;1.63;;;1.52;;
11612;SDS011;5862;48.718;9.108;2022-08-03T05:13:26;2.42;;;2.22;;
11612;SDS011;5862;48.718;9.108;2022-08-03T05:15:52;1.90;;;1.80;;
11612;SDS011;5862;48.718;9.108;2022-08-03T05:18:23;2.20;;;2.08;;
11612;SDS011;5862;48.718;9.108;2022-08-03T05:20:50;1.80;;;1.70;;
11612;SDS011;5862;48.718;9.108;2022-08-03T05:23:16;1.88;;;1.63;;
11612;SDS011;5862;48.718;9.108;2022-08-03T05:25:43;3.63;;;2.65;;
11612;SDS011;5862;48.718;9.108;2022-08-03T05:28:15;3.05;;;2.75;;
11612;SDS011;5862;48.718;9.108;2022-08-03T05:30:44;5.15;;;3.05;;
11612;SDS011;5862;48.718;9.108;2022-08-03T05:33:13;4.57;;;2.70;;
11612;SDS011;5862;48.718;9.108;2022-08-03T05:35:39;3.10;;;2.33;;
11612;SDS011;5862;48.718;9.108;2022-08-03T05:38:28;2.83;;;2.63;;
11612;SDS011;5862;48.718;9.108;2022-08-03T05:41:00;4.80;;;2.47;;
11612;SDS011;5862;48.718;9.108;2022-08-03T05:43:48;4.95;;;3.17;;
11612;SDS011;5862;48.718;9.108;2022-08-03T05:46:15;2.90;;;2.35;;
11612;SDS011;5862;48.718;9.108;2022-08-03T05:48:42;3.97;;;2.63;;
11612;SDS011;5862;48.718;9.108;2022-08-03T05:51:08;3.53;;;2.63;;
11612;SDS011;5862;48.718;9.108;2022-08-03T05:53:37;3.45;;;2.30;;
11612;SDS011;5862;48.718;9.108;2022-08-03T05:56:04;2.40;;;1.90;;
11612;SDS011;5862;48.718;9.108;2022-08-03T05:58:44;2.60;;;2.40;;
11612;SDS011;5862;48.718;9.108;2022-08-03T06:01:14;2.38;;;1.85;;
11612;SDS011;5862;48.718;9.108;2022-08-03T06:03:44;2.55;;;2.20;;
11612;SDS011;5862;48.718;9.108;2022-08-03T06:06:14;2.40;;;2.20;;
11612;SDS011;5862;48.718;9.108;2022-08-03T06:08:43;2.80;;;2.25;;
11612;SDS011;5862;48.718;9.108;2022-08-03T06:11:13;1.85;;;1.75;;
11612;SDS011;5862;48.718;9.108;2022-08-03T06:13:41;2.20;;;2.00;;
11612;SDS011;5862;48.718;9.108;2022-08-03T06:16:11;2.30;;;2.00;;
11612;SDS011;5862;48.718;9.108;2022-08-03T06:18:37;2.78;;;1.90;;
11612;SDS011;5862;48.718;9.108;2022-08-03T06:21:06;1.65;;;1.55;;
11612;SDS011;5862;48.718;9.108;2022-08-03T06:23:41;1.40;;;1.30;;
11612;SDS011;5862;48.718;9.108;2022-08-03T06:26:20;1.83;;;1.73;;
11612;SDS011;5862;48.718;9.108;2022-08-03T06:28:50;1.33;;;1.15;;
11612;SDS011;5862;48.718;9.108;2022-08-03T06:31:23;3.05;;;1.85;;
11612;SDS011;5862;48.718;9.108;2022-08-03T06:34:01;1.50;;;1.40;;
11612;SDS011;5862;48.718;9.108;2022-08-03T06:36:48;1.95;;;1.40;;
11612;SDS011;5862;48.718;9.108;2022-08-03T06:39:17;1.55;;;1.45;;
11612;SDS011;5862;48.718;9.108;2022-08-03T06:41:49;1.45;;;1.33;;
11612;SDS011;5862;48.718;9.108;2022-08-03T06:44:15;2.58;;;1.83;;
11612;SDS011;5862;48.718;9.108;2022-08-03T06:46:42;1.77;;;1.52;;
11612;SDS011;5862;48.718;9.108;2022-08-03T06:49:08;2.00;;;1.42;;
11612;SDS011;5862;48.718;9.108;2022-08-03T06:51:35;2.25;;;1.67;;
11612;SDS011;5862;48.718;9.108;2022-08-03T06:54:21;1.60;;;1.50;;
11612;SDS011;5862;48.718;9.108;2022-08-03T06:56:53;1.40;;;1.30;;
11612;SDS011;5862;48.718;9.108;2022-08-03T06:59:19;1.30;;;1.20;;
11612;SDS011;5862;48.718;9.108;2022-08-03T07:02:06;1.40;;;1.30;;
11612;SDS011;5862;48.718;9.108;2022-08-03T07:04:32;1.35;;;1.25;;
11612;SDS011;5862;48.718;9.108;2022-08-03T07:07:01;1.30;;;1.20;;
11612;SDS011;5862;48.718;9.108;2022-08-03T07:09:32;1.35;;;0.90;;
11612;SDS011;5862;48.718;9.108;2022-08-03T07:11:59;1.35;;;1.25;;
11612;SDS011;5862;48.718;9.108;2022-08-03T07:14:27;1.65;;;1.30;;
11612;SDS011;5862;48.718;9.108;2022-08-03T07:16:56;1.33;;;1.23;;
11612;SDS011;5862;48.718;9.108;2022-08-03T07:19:24;1.27;;;1.08;;
11612;SDS011;5862;48.718;9.108;2022-08-03T07:21:51;1.42;;;1.33;;
11612;SDS011;5862;48.718;9.108;2022-08-03T07:24:27;1.38;;;1.00;;
11612;SDS011;5862;48.718;9.108;2022-08-03T07:26:54;1.25;;;1.15;;
11612;SDS011;5862;48.718;9.108;2022-08-03T07:29:20;0.90;;;0.90;;
11612;SDS011;5862;48.718;9.108;2022-08-03T07:31:47;1.20;;;1.10;;
11612;SDS011;5862;48.718;9.108;2022-08-03T07:34:13;1.10;;;1.10;;
11612;SDS011;5862;48.718;9.108;2022-08-03T07:36:42;1.40;;;1.30;;
11612;SDS011;5862;48.718;9.108;2022-08-03T07:39:13;1.58;;;1.30;;
11612;SDS011;5862;48.718;9.108;2022-08-03T07:41:43;1.30;;;1.20;;
11612;SDS011;5862;48.718;9.108;2022-08-03T07:44:12;1.45;;;1.00;;
11612;SDS011;5862;48.718;9.108;2022-08-03T07:46:39;1.35;;;1.10;;
11612;SDS011;5862;48.718;9.108;2022-08-03T07:49:10;1.30;;;1.20;;
11612;SDS011;5862;48.718;9.108;2022-08-03T07:51:39;1.35;;;1.00;;
11612;SDS011;5862;48.718;9.108;2022-08-03T07:54:08;0.98;;;0.98;;
11612;SDS011;5862;48.718;9.108;2022-08-03T07:56:40;1.05;;;0.95;;
11612;SDS011;5862;48.718;9.108;2022-08-03T07:59:07;1.17;;;1.08;;
11612;SDS011;5862;48.718;9.108;2022-08-03T08:01:33;1.60;;;0.90;;
11612;SDS011;5862;48.718;9.108;2022-08-03T08:04:02;1.00;;;0.90;;
11612;SDS011;5862;48.718;9.108;2022-08-03T08:06:28;0.80;;;0.80;;
11612;SDS011;5862;48.718;9.108;2022-08-03T08:08:57;0.85;;;0.85;;
11612;SDS011;5862;48.718;9.108;2022-08-03T08:11:26;0.70;;;0.70;;
11612;SDS011;5862;48.718;9.108;2022-08-03T08:13:55;0.90;;;0.90;;
11612;SDS011;5862;48.718;9.108;2022-08-03T08:16:21;1.75;;;0.90;;
11612;SDS011;5862;48.718;9.108;2022-08-03T08:18:48;1.00;;;0.88;;
11612;SDS011;5862;48.718;9.108;2022-08-03T08:21:14;0.82;;;0.82;;
11612;SDS011;5862;48.718;9.108;2022-08-03T08:23:41;1.30;;;1.00;;
11612;SDS011;5862;48.718;9.108;2022-08-03T08:26:24;1.15;;;1.00;;
11612;SDS011;5862;48.718;9.108;2022-08-03T08:28:51;2.05;;;0.98;;
11612;SDS011;5862;48.718;9.108;2022-08-03T08:31:17;0.75;;;0.70;;
11612;SDS011;5862;48.718;9.108;2022-08-03T08:33:44;0.80;;;0.75;;
11612;SDS011;5862;48.718;9.108;2022-08-03T08:36:29;0.90;;;0.90;;
11612;SDS011;5862;48.718;9.108;2022-08-03T08:38:56;0.70;;;0.70;;
11612;SDS011;5862;48.718;9.108;2022-08-03T08:41:25;0.85;;;0.65;;
11612;SDS011;5862;48.718;9.108;2022-08-03T08:43:57;1.25;;;0.88;;
11612;SDS011;5862;48.718;9.108;2022-08-03T08:46:25;0.70;;;0.60;;
11612;SDS011;5862;48.718;9.108;2022-08-03T08:48:52;0.60;;;0.60;;
11612;SDS011;5862;48.718;9.108;2022-08-03T08:51:22;0.75;;;0.75;;
11612;SDS011;5862;48.718;9.108;2022-08-03T08:54:13;0.60;;;0.60;;
11612;SDS011;5862;48.718;9.108;2022-08-03T08:56:46;0.70;;;0.70;;
11612;SDS011;5862;48.718;9.108;2022-08-03T08:59:17;0.60;;;0.60;;
11612;SDS011;5862;48.718;9.108;2022-08-03T09:01:44;0.70;;;0.70;;
11612;SDS011;5862;48.718;9.108;2022-08-03T09:04:11;0.60;;;0.60;;
11612;SDS011;5862;48.718;9.108;2022-08-03T09:06:40;0.88;;;0.80;;
11612;SDS011;5862;48.718;9.108;2022-08-03T09:09:29;0.70;;;0.70;;
11612;SDS011;5862;48.718;9.108;2022-08-03T09:12:16;1.42;;;0.70;;
11612;SDS011;5862;48.718;9.108;2022-08-03T09:15:19;0.70;;;0.70;;
11612;SDS011;5862;48.718;9.108;2022-08-03T09:17:49;1.13;;;0.50;;
11612;SDS011;5862;48.718;9.108;2022-08-03T09:20:21;0.73;;;0.73;;
11612;SDS011;5862;48.718;9.108;2022-08-03T09:25:32;0.98;;;0.90;;
11612;SDS011;5862;48.718;9.108;2022-08-03T09:28:12;0.95;;;0.90;;
11612;SDS011;5862;48.718;9.108;2022-08-03T09:31:00;0.60;;;0.60;;
11612;SDS011;5862;48.718;9.108;2022-08-03T09:33:26;0.73;;;0.70;;
11612;SDS011;5862;48.718;9.108;2022-08-03T09:36:03;0.50;;;0.50;;
11612;SDS011;5862;48.718;9.108;2022-08-03T09:38:32;1.02;;;0.90;;
11612;SDS011;5862;48.718;9.108;2022-08-03T09:41:01;0.80;;;0.75;;
11612;SDS011;5862;48.718;9.108;2022-08-03T09:43:27;1.80;;;0.77;;
11612;SDS011;5862;48.718;9.108;2022-08-03T09:46:13;2.47;;;1.00;;
11612;SDS011;5862;48.718;9.108;2022-08-03T09:48:41;2.00;;;0.93;;
11612;SDS011;5862;48.718;9.108;2022-08-03T09:51:10;1.80;;;0.80;;
11612;SDS011;5862;48.718;9.108;2022-08-03T09:53:58;1.50;;;0.70;;
11612;SDS011;5862;48.718;9.108;2022-08-03T09:59:08;1.25;;;1.13;;
11612;SDS011;5862;48.718;9.108;2022-08-03T10:01:39;1.38;;;1.00;;
11612;SDS011;5862;48.718;9.108;2022-08-03T10:04:10;1.50;;;1.05;;
11612;SDS011;5862;48.718;9.108;2022-08-03T10:06:40;2.05;;;1.00;;
11612;SDS011;5862;48.718;9.108;2022-08-03T10:09:10;1.35;;;0.90;;
11612;SDS011;5862;48.718;9.108;2022-08-03T10:11:43;1.85;;;1.33;;
11612;SDS011;5862;48.718;9.108;2022-08-03T10:14:12;0.93;;;0.80;;
11612;SDS011;5862;48.718;9.108;2022-08-03T10:16:45;2.33;;;1.30;;
11612;SDS011;5862;48.718;9.108;2022-08-03T10:19:12;2.10;;;1.00;;
11612;SDS011;5862;48.718;9.108;2022-08-03T10:21:45;1.08;;;0.90;;
11612;SDS011;5862;48.718;9.108;2022-08-03T10:24:19;0.75;;;0.75;;
11612;SDS011;5862;48.718;9.108;2022-08-03T10:26:52;2.05;;;1.00;;
11612;SDS011;5862;48.718;9.108;2022-08-03T10:29:34;2.42;;;1.40;;
11612;SDS011;5862;48.718;9.108;2022-08-03T10:35:01;2.08;;;1.10;;
11612;SDS011;5862;48.718;9.108;2022-08-03T10:37:59;1.23;;;0.90;;
11612;SDS011;5862;48.718;9.108;2022-08-03T10:40:31;1.20;;;0.90;;
11612;SDS011;5862;48.718;9.108;2022-08-03T10:43:21;2.13;;;1.20;;
11612;SDS011;5862;48.718;9.108;2022-08-03T10:45:53;1.50;;;1.05;;
11612;SDS011;5862;48.718;9.108;2022-08-03T10:48:21;1.45;;;1.10;;
11612;SDS011;5862;48.718;9.108;2022-08-03T10:50:47;0.93;;;0.90;;
11612;SDS011;5862;48.718;9.108;2022-08-03T10:53:39;1.05;;;1.05;;
11612;SDS011;5862;48.718;9.108;2022-08-03T10:59:55;1.80;;;0.98;;
11612;SDS011;5862;48.718;9.108;2022-08-03T11:02:17;1.33;;;1.17;;
11612;SDS011;5862;48.718;9.108;2022-08-03T11:04:46;0.90;;;0.90;;
11612;SDS011;5862;48.718;9.108;2022-08-03T11:07:22;1.05;;;1.05;;
11612;SDS011;5862;48.718;9.108;2022-08-03T11:09:52;2.45;;;1.00;;
11612;SDS011;5862;48.718;9.108;2022-08-03T11:15:00;1.35;;;0.98;;
11612;SDS011;5862;48.718;9.108;2022-08-03T11:17:28;2.13;;;1.30;;
11612;SDS011;5862;48.718;9.108;2022-08-03T11:19:55;1.40;;;1.20;;
11612;SDS011;5862;48.718;9.108;2022-08-03T11:22:23;1.52;;;1.08;;
11612;SDS011;5862;48.718;9.108;2022-08-03T11:25:12;2.35;;;1.20;;
11612;SDS011;5862;48.718;9.108;2022-08-03T11:30:55;1.50;;;1.40;;
11612;SDS011;5862;48.718;9.108;2022-08-03T11:33:28;1.33;;;1.23;;
11612;SDS011;5862;48.718;9.108;2022-08-03T11:36:00;1.40;;;1.30;;
11612;SDS011;5862;48.718;9.108;2022-08-03T11:38:29;1.50;;;1.40;;
11612;SDS011;5862;48.718;9.108;2022-08-03T11:40:58;1.20;;;1.10;;
11612;SDS011;5862;48.718;9.108;2022-08-03T11:46:04;0.90;;;0.90;;
11612;SDS011;5862;48.718;9.108;2022-08-03T11:51:00;1.30;;;1.20;;
11612;SDS011;5862;48.718;9.108;2022-08-03T11:53:27;1.10;;;0.93;;
11612;SDS011;5862;48.718;9.108;2022-08-03T11:55:57;1.30;;;1.20;;
11612;SDS011;5862;48.718;9.108;2022-08-03T11:58:25;1.13;;;1.08;;
11612;SDS011;5862;48.718;9.108;2022-08-03T12:01:13;1.55;;;1.20;;
11612;SDS011;5862;48.718;9.108;2022-08-03T12:03:50;1.40;;;1.30;;
11612;SDS011;5862;48.718;9.108;2022-08-03T12:06:17;1.20;;;1.20;;
11612;SDS011;5862;48.718;9.108;2022-08-03T12:08:44;1.00;;;1.00;;
11612;SDS011;5862;48.718;9.108;2022-08-03T12:11:14;1.20;;;1.10;;
11612;SDS011;5862;48.718;9.108;2022-08-03T12:13:47;1.52;;;1.42;;
11612;SDS011;5862;48.718;9.108;2022-08-03T12:16:37;1.40;;;1.30;;
11612;SDS011;5862;48.718;9.108;2022-08-03T12:19:08;1.20;;;1.10;;
11612;SDS011;5862;48.718;9.108;2022-08-03T12:21:38;1.20;;;1.08;;
11612;SDS011;5862;48.718;9.108;2022-08-03T12:24:22;1.35;;;1.25;;
11612;SDS011;5862;48.718;9.108;2022-08-03T12:26:53;2.60;;;1.55;;
11612;SDS011;5862;48.718;9.108;2022-08-03T12:29:25;1.65;;;1.55;;
11612;SDS011;5862;48.718;9.108;2022-08-03T12:31:54;1.40;;;1.30;;
11612;SDS011;5862;48.718;9.108;2022-08-03T12:34:25;1.05;;;1.05;;
11612;SDS011;5862;48.718;9.108;2022-08-03T12:37:12;1.30;;;1.20;;
11612;SDS011;5862;48.718;9.108;2022-08-03T12:39:54;1.30;;;1.20;;
11612;SDS011;5862;48.718;9.108;2022-08-03T12:42:35;1.25;;;1.15;;
11612;SDS011;5862;48.718;9.108;2022-08-03T12:45:21;1.05;;;1.02;;
11612;SDS011;5862;48.718;9.108;2022-08-03T12:47:50;1.25;;;1.15;;
11612;SDS011;5862;48.718;9.108;2022-08-03T12:50:24;1.15;;;1.05;;
11612;SDS011;5862;48.718;9.108;2022-08-03T12:53:02;2.22;;;1.10;;
11612;SDS011;5862;48.718;9.108;2022-08-03T12:55:34;1.52;;;1.35;;
11612;SDS011;5862;48.718;9.108;2022-08-03T12:58:30;1.05;;;1.00;;
11612;SDS011;5862;48.718;9.108;2022-08-03T13:01:00;1.30;;;1.20;;
11612;SDS011;5862;48.718;9.108;2022-08-03T13:03:41;2.45;;;1.45;;
11612;SDS011;5862;48.718;9.108;2022-08-03T13:06:19;1.55;;;1.40;;
11612;SDS011;5862;48.718;9.108;2022-08-03T13:09:00;1.63;;;1.40;;
11612;SDS011;5862;48.718;9.108;2022-08-03T13:11:30;1.30;;;1.10;;
11612;SDS011;5862;48.718;9.108;2022-08-03T13:14:19;1.77;;;1.38;;
11612;SDS011;5862;48.718;9.108;2022-08-03T13:16:46;1.33;;;1.23;;
11612;SDS011;5862;48.718;9.108;2022-08-03T13:19:13;1.50;;;1.40;;
11612;SDS011;5862;48.718;9.108;2022-08-03T13:21:41;1.60;;;1.50;;
11612;SDS011;5862;48.718;9.108;2022-08-03T13:24:29;1.40;;;1.30;;
11612;SDS011;5862;48.718;9.108;2022-08-03T13:26:57;1.20;;;1.10;;
11612;SDS011;5862;48.718;9.108;2022-08-03T13:29:24;1.08;;;1.00;;
11612;SDS011;5862;48.718;9.108;2022-08-03T13:31:50;1.33;;;1.23;;
11612;SDS011;5862;48.718;9.108;2022-08-03T13:34:19;2.25;;;1.20;;
11612;SDS011;5862;48.718;9.108;2022-08-03T13:36:49;1.10;;;1.00;;
11612;SDS011;5862;48.718;9.108;2022-08-03T13:39:34;1.38;;;1.27;;
11612;SDS011;5862;48.718;9.108;2022-08-03T13:42:23;1.90;;;1.33;;
11612;SDS011;5862;48.718;9.108;2022-08-03T13:44:50;1.77;;;1.10;;
11612;SDS011;5862;48.718;9.108;2022-08-03T13:47:17;1.08;;;1.00;;
11612;SDS011;5862;48.718;9.108;2022-08-03T13:49:44;1.40;;;1.10;;
11612;SDS011;5862;48.718;9.108;2022-08-03T13:52:27;1.23;;;1.13;;
11612;SDS011;5862;48.718;9.108;2022-08-03T13:55:00;1.42;;;1.30;;
11612;SDS011;5862;48.718;9.108;2022-08-03T13:57:27;1.30;;;1.20;;
11612;SDS011;5862;48.718;9.108;2022-08-03T14:00:14;2.50;;;1.30;;
11612;SDS011;5862;48.718;9.108;2022-08-03T14:02:54;1.23;;;1.20;;
11612;SDS011;5862;48.718;9.108;2022-08-03T14:05:40;1.85;;;1.42;;
11612;SDS011;5862;48.718;9.108;2022-08-03T14:08:09;1.48;;;1.38;;
11612;SDS011;5862;48.718;9.108;2022-08-03T14:10:37;2.00;;;1.48;;
11612;SDS011;5862;48.718;9.108;2022-08-03T14:13:07;1.33;;;1.23;;
11612;SDS011;5862;48.718;9.108;2022-08-03T14:15:42;2.10;;;1.20;;
11612;SDS011;5862;48.718;9.108;2022-08-03T14:18:15;1.50;;;1.10;;
11612;SDS011;5862;48.718;9.108;2022-08-03T14:20:59;1.85;;;1.33;;
11612;SDS011;5862;48.718;9.108;2022-08-03T14:23:33;1.38;;;1.27;;
11612;SDS011;5862;48.718;9.108;2022-08-03T14:26:00;2.78;;;1.20;;
11612;SDS011;5862;48.718;9.108;2022-08-03T14:28:26;1.42;;;1.20;;
11612;SDS011;5862;48.718;9.108;2022-08-03T14:30:54;1.10;;;1.10;;
11612;SDS011;5862;48.718;9.108;2022-08-03T14:33:23;0.85;;;0.85;;
11612;SDS011;5862;48.718;9.108;2022-08-03T14:35:50;1.40;;;1.30;;
11612;SDS011;5862;48.718;9.108;2022-08-03T14:38:19;1.48;;;1.38;;
11612;SDS011;5862;48.718;9.108;2022-08-03T14:40:49;1.90;;;1.50;;
11612;SDS011;5862;48.718;9.108;2022-08-03T14:43:15;1.40;;;1.30;;
11612;SDS011;5862;48.718;9.108;2022-08-03T14:45:48;1.38;;;1.27;;
11612;SDS011;5862;48.718;9.108;2022-08-03T14:48:19;1.10;;;1.10;;
11612;SDS011;5862;48.718;9.108;2022-08-03T14:51:06;1.48;;;1.38;;
11612;SDS011;5862;48.718;9.108;2022-08-03T14:53:33;1.42;;;1.33;;
11612;SDS011;5862;48.718;9.108;2022-08-03T14:55:59;1.30;;;1.20;;
11612;SDS011;5862;48.718;9.108;2022-08-03T14:58:29;1.20;;;1.10;;
11612;SDS011;5862;48.718;9.108;2022-08-03T15:00:55;1.45;;;1.35;;
11612;SDS011;5862;48.718;9.108;2022-08-03T15:03:22;1.35;;;1.15;;
11612;SDS011;5862;48.718;9.108;2022-08-03T15:05:52;0.98;;;0.98;;
11612;SDS011;5862;48.718;9.108;2022-08-03T15:08:20;1.20;;;1.10;;
11612;SDS011;5862;48.718;9.108;2022-08-03T15:10:50;1.20;;;1.10;;
11612;SDS011;5862;48.718;9.108;2022-08-03T15:13:18;2.70;;;1.58;;
11612;SDS011;5862;48.718;9.108;2022-08-03T15:15:45;1.42;;;1.33;;
11612;SDS011;5862;48.718;9.108;2022-08-03T15:18:13;1.20;;;1.10;;
11612;SDS011;5862;48.718;9.108;2022-08-03T15:20:45;1.75;;;1.42;;
11612;SDS011;5862;48.718;9.108;2022-08-03T15:23:15;1.75;;;1.65;;
11612;SDS011;5862;48.718;9.108;2022-08-03T15:25:45;1.70;;;1.30;;
11612;SDS011;5862;48.718;9.108;2022-08-03T15:28:32;1.20;;;1.10;;
11612;SDS011;5862;48.718;9.108;2022-08-03T15:31:02;1.40;;;1.30;;
11612;SDS011;5862;48.718;9.108;2022-08-03T15:33:29;1.40;;;1.30;;
11612;SDS011;5862;48.718;9.108;2022-08-03T15:36:02;0.82;;;0.82;;
11612;SDS011;5862;48.718;9.108;2022-08-03T15:38:29;1.75;;;1.42;;
11612;SDS011;5862;48.718;9.108;2022-08-03T15:40:55;1.23;;;1.13;;
11612;SDS011;5862;48.718;9.108;2022-08-03T15:43:23;1.25;;;1.15;;
11612;SDS011;5862;48.718;9.108;2022-08-03T15:45:50;1.40;;;1.27;;
11612;SDS011;5862;48.718;9.108;2022-08-03T15:48:42;1.40;;;1.30;;
11612;SDS011;5862;48.718;9.108;2022-08-03T15:51:08;1.30;;;1.20;;
11612;SDS011;5862;48.718;9.108;2022-08-03T15:53:37;1.35;;;1.25;;
11612;SDS011;5862;48.718;9.108;2022-08-03T15:56:04;1.10;;;1.10;;
11612;SDS011;5862;48.718;9.108;2022-08-03T15:58:39;1.58;;;1.48;;
11612;SDS011;5862;48.718;9.108;2022-08-03T16:01:25;2.13;;;1.20;;
11612;SDS011;5862;48.718;9.108;2022-08-03T16:03:55;1.20;;;1.10;;
11612;SDS011;5862;48.718;9.108;2022-08-03T16:06:21;1.30;;;1.25;;
11612;SDS011;5862;48.718;9.108;2022-08-03T16:09:02;2.25;;;1.10;;